createdAt,value
2018-01-26T00:01:20.678Z,94.03
2018-01-26T00:03:49.087Z,94.10
2018-01-26T00:06:17.298Z,94.20
2018-01-26T00:08:45.462Z,94.22
2018-01-26T00:11:12.938Z,94.29
2018-01-26T00:13:40.682Z,94.33
2018-01-26T00:16:08.154Z,94.33
2018-01-26T00:18:35.618Z,94.38
2018-01-26T00:21:03.367Z,94.36
2018-01-26T00:23:30.910Z,94.20
2018-01-26T00:25:58.741Z,94.22
2018-01-26T00:28:26.215Z,94.22
2018-01-26T00:30:53.935Z,94.21
2018-01-26T00:33:21.430Z,94.25
2018-01-26T00:35:49.368Z,94.38
2018-01-26T00:40:44.054Z,94.46
2018-01-26T00:43:11.527Z,94.50
2018-01-26T00:45:38.984Z,94.60
2018-01-26T00:48:06.455Z,94.66
2018-01-26T00:50:33.904Z,94.82
2018-01-26T00:53:01.375Z,94.89
2018-01-26T00:55:28.824Z,94.94
2018-01-26T00:57:56.337Z,95.00
2018-01-26T01:00:23.788Z,95.14
2018-01-26T01:02:51.237Z,95.31
2018-01-26T01:05:18.720Z,95.47
2018-01-26T01:07:52.132Z,95.62
2018-01-26T01:10:19.617Z,95.68
2018-01-26T01:12:47.071Z,95.73
2018-01-26T01:15:14.539Z,95.71
2018-01-26T01:17:42.011Z,95.76
2018-01-26T01:20:09.485Z,95.55
2018-01-26T01:22:36.940Z,95.60
2018-01-26T01:25:04.406Z,95.63
2018-01-26T01:27:31.854Z,95.60
2018-01-26T01:29:59.315Z,95.51
2018-01-26T01:32:26.775Z,95.45
2018-01-26T01:34:54.248Z,95.45
2018-01-26T01:37:21.726Z,95.46
2018-01-26T01:39:49.210Z,95.38
2018-01-26T01:42:16.653Z,95.30
2018-01-26T01:44:44.114Z,95.35
2018-01-26T01:47:11.558Z,95.32
2018-01-26T01:49:39.026Z,95.36
2018-01-26T01:52:06.487Z,95.34
2018-01-26T01:54:33.954Z,95.40
2018-01-26T01:57:01.402Z,95.33
2018-01-26T01:59:28.867Z,95.30
2018-01-26T02:01:56.322Z,95.27
2018-01-26T02:04:23.803Z,95.29
2018-01-26T02:06:51.251Z,95.37
2018-01-26T02:09:18.720Z,95.38
2018-01-26T02:11:46.166Z,95.34
2018-01-26T02:14:13.634Z,95.40
2018-01-26T02:16:41.079Z,95.48
2018-01-26T02:19:08.554Z,95.59
2018-01-26T02:21:36.015Z,95.28
2018-01-26T02:24:21.107Z,94.64
2018-01-26T02:26:48.550Z,94.16
2018-01-26T02:29:16.063Z,94.13
2018-01-26T02:31:43.515Z,94.30
2018-01-26T02:34:10.972Z,94.37
2018-01-26T02:36:38.440Z,94.49
2018-01-26T02:39:05.895Z,94.62
2018-01-26T02:41:33.367Z,94.79
2018-01-26T02:44:00.812Z,94.89
2018-01-26T02:46:28.283Z,95.02
2018-01-26T02:48:55.730Z,95.11
2018-01-26T02:51:23.200Z,95.18
2018-01-26T02:53:50.666Z,95.23
2018-01-26T02:56:18.151Z,95.25
2018-01-26T02:58:45.594Z,95.19
2018-01-26T03:01:13.063Z,95.15
2018-01-26T03:03:40.515Z,94.94
2018-01-26T03:06:07.986Z,94.96
2018-01-26T03:08:35.434Z,94.89
2018-01-26T03:11:02.902Z,94.82
2018-01-26T03:13:30.350Z,94.85
2018-01-26T03:15:57.821Z,94.87
2018-01-26T03:18:25.351Z,94.92
2018-01-26T03:20:52.827Z,95.03
2018-01-26T03:23:20.287Z,95.08
2018-01-26T03:25:47.763Z,95.18
2018-01-26T03:28:15.210Z,95.23
2018-01-26T03:30:42.718Z,95.32
2018-01-26T03:33:10.169Z,95.35
2018-01-26T03:35:37.641Z,95.34
2018-01-26T03:38:05.087Z,95.32
2018-01-26T03:40:32.562Z,95.25
2018-01-26T03:43:00.012Z,95.23
2018-01-26T03:45:27.462Z,95.27
2018-01-26T03:47:54.926Z,95.32
2018-01-26T03:50:22.375Z,95.28
2018-01-26T03:52:49.870Z,95.21
2018-01-26T03:55:17.326Z,95.27
2018-01-26T03:57:44.806Z,95.24
2018-01-26T04:00:12.255Z,95.30
2018-01-26T04:02:39.730Z,95.36
2018-01-26T04:05:07.186Z,95.42
2018-01-26T04:07:34.666Z,95.49
2018-01-26T04:10:02.126Z,95.53
2018-01-26T04:12:29.602Z,95.53
2018-01-26T04:14:57.067Z,95.57
2018-01-26T04:17:24.543Z,95.62
2018-01-26T04:19:52.009Z,95.64
2018-01-26T04:22:19.482Z,95.68
2018-01-26T04:24:46.939Z,95.75
2018-01-26T04:27:14.418Z,95.79
2018-01-26T04:29:41.875Z,95.80
2018-01-26T04:32:09.362Z,95.80
2018-01-26T04:34:36.815Z,95.63
2018-01-26T04:37:04.291Z,95.66
2018-01-26T04:39:31.751Z,95.74
2018-01-26T04:41:59.216Z,95.75
2018-01-26T04:44:26.678Z,95.75
2018-01-26T04:46:54.154Z,95.65
2018-01-26T04:49:21.610Z,95.67
2018-01-26T04:51:49.087Z,95.72
2018-01-26T04:54:16.543Z,95.73
2018-01-26T04:56:44.024Z,95.73
2018-01-26T04:59:11.478Z,95.72
2018-01-26T05:01:38.946Z,95.71
2018-01-26T05:04:06.399Z,95.74
2018-01-26T05:06:33.862Z,95.81
2018-01-26T05:09:01.385Z,95.97
2018-01-26T05:11:28.844Z,96.03
2018-01-26T05:13:56.318Z,96.12
2018-01-26T05:16:23.769Z,96.23
2018-01-26T05:18:51.247Z,96.25
2018-01-26T05:21:18.702Z,96.27
2018-01-26T05:23:46.170Z,96.27
2018-01-26T05:26:13.630Z,96.18
2018-01-26T05:28:41.110Z,96.16
2018-01-26T05:31:08.566Z,96.14
2018-01-26T05:33:36.051Z,96.17
2018-01-26T05:36:03.523Z,96.20
2018-01-26T05:38:30.995Z,96.16
2018-01-26T05:40:58.458Z,96.06
2018-01-26T05:43:25.930Z,96.00
2018-01-26T05:45:53.399Z,96.04
2018-01-26T05:48:20.907Z,96.05
2018-01-26T05:50:48.367Z,96.00
2018-01-26T05:53:15.843Z,95.95
2018-01-26T05:55:43.298Z,96.03
2018-01-26T05:58:10.778Z,96.16
2018-01-26T06:00:38.239Z,96.29
2018-01-26T06:03:05.718Z,96.44
2018-01-26T06:05:33.271Z,96.59
2018-01-26T06:08:00.755Z,96.69
2018-01-26T06:10:28.216Z,96.75
2018-01-26T06:12:55.691Z,96.75
2018-01-26T06:15:23.155Z,96.68
2018-01-26T06:17:50.703Z,96.66
2018-01-26T06:20:18.167Z,96.71
2018-01-26T06:22:45.643Z,96.73
2018-01-26T06:25:13.099Z,96.62
2018-01-26T06:27:40.554Z,96.58
2018-01-26T06:30:08.032Z,96.56
2018-01-26T06:32:35.495Z,96.54
2018-01-26T06:35:02.976Z,96.49
2018-01-26T06:40:04.279Z,96.39
2018-01-26T06:42:31.739Z,96.33
2018-01-26T06:44:59.219Z,96.09
2018-01-26T06:47:26.675Z,96.13
2018-01-26T06:49:54.379Z,96.11
2018-01-26T06:52:21.835Z,96.08
2018-01-26T06:54:49.321Z,95.94
2018-01-26T06:57:16.794Z,95.86
2018-01-26T06:59:44.276Z,95.78
2018-01-26T07:02:11.722Z,95.71
2018-01-26T07:04:39.203Z,95.59
2018-01-26T07:07:06.661Z,95.41
2018-01-26T07:09:34.143Z,95.16
2018-01-26T07:12:01.608Z,95.11
2018-01-26T07:14:29.098Z,95.06
2018-01-26T07:16:56.563Z,95.01
2018-01-26T07:19:24.085Z,94.91
2018-01-26T07:21:51.526Z,94.85
2018-01-26T07:24:19.020Z,94.76
2018-01-26T07:26:46.487Z,94.61
2018-01-26T07:29:13.967Z,94.67
2018-01-26T07:31:44.439Z,94.70
2018-01-26T07:34:11.941Z,94.71
2018-01-26T07:36:39.441Z,94.64
2018-01-26T07:39:06.894Z,94.59
2018-01-26T07:41:34.355Z,94.56
2018-01-26T07:44:01.851Z,93.99
2018-01-26T07:46:29.310Z,93.72
2018-01-26T07:48:56.811Z,93.55
2018-01-26T07:51:24.281Z,93.63
2018-01-26T07:53:51.767Z,93.78
2018-01-26T07:56:19.227Z,93.80
2018-01-26T07:58:46.691Z,92.62
2018-01-26T08:01:14.174Z,91.20
2018-01-26T08:03:41.635Z,91.08
2018-01-26T08:06:09.110Z,90.93
2018-01-26T08:08:36.590Z,89.43
2018-01-26T08:11:04.067Z,89.26
2018-01-26T08:13:31.527Z,89.19
2018-01-26T08:15:59.001Z,89.43
2018-01-26T08:18:26.450Z,90.02
2018-01-26T08:20:53.928Z,90.48
2018-01-26T08:23:21.382Z,90.83
2018-01-26T08:25:48.863Z,91.09
2018-01-26T08:28:16.322Z,90.49
2018-01-26T08:30:43.794Z,89.57
2018-01-26T08:33:11.255Z,90.53
2018-01-26T08:35:38.867Z,91.11
2018-01-26T08:38:06.336Z,90.95
2018-01-26T08:40:33.819Z,90.75
2018-01-26T08:43:01.279Z,90.51
2018-01-26T08:45:28.778Z,90.12
2018-01-26T08:47:56.256Z,89.93
2018-01-26T08:50:23.738Z,89.92
2018-01-26T08:52:51.191Z,89.89
2018-01-26T08:55:19.585Z,88.77
2018-01-26T08:57:47.043Z,86.56
2018-01-26T09:00:14.528Z,88.26
2018-01-26T09:02:41.982Z,87.46
2018-01-26T09:05:09.510Z,86.79
2018-01-26T09:07:36.958Z,87.31
2018-01-26T09:10:04.430Z,86.50
2018-01-26T09:12:31.887Z,87.39
2018-01-26T09:14:59.363Z,87.06
2018-01-26T09:17:26.819Z,86.80
2018-01-26T09:19:54.270Z,88.00
2018-01-26T09:22:21.746Z,86.73
2018-01-26T09:24:49.212Z,88.06
2018-01-26T09:27:16.695Z,88.45
2018-01-26T09:29:44.165Z,88.92
2018-01-26T09:32:11.648Z,89.02
2018-01-26T09:34:39.131Z,88.86
2018-01-26T09:37:06.633Z,88.27
2018-01-26T09:39:34.083Z,87.62
2018-01-26T09:42:01.562Z,86.56
2018-01-26T09:44:29.011Z,86.12
2018-01-26T09:46:56.499Z,85.45
2018-01-26T09:49:23.960Z,84.90
2018-01-26T09:51:51.439Z,84.15
2018-01-26T09:54:18.902Z,83.89
2018-01-26T09:56:46.383Z,84.28
2018-01-26T09:59:13.842Z,84.34
2018-01-26T10:01:41.320Z,84.38
2018-01-26T10:04:08.781Z,82.61
2018-01-26T10:06:36.267Z,83.15
2018-01-26T10:09:03.727Z,83.99
2018-01-26T10:11:31.205Z,83.38
2018-01-26T10:13:58.662Z,82.01
2018-01-26T10:16:26.169Z,83.48
2018-01-26T10:18:53.630Z,83.94
2018-01-26T10:21:21.115Z,82.85
2018-01-26T10:23:48.582Z,84.42
2018-01-26T10:26:16.071Z,83.21
2018-01-26T10:28:43.543Z,84.80
2018-01-26T10:31:11.015Z,81.38
2018-01-26T10:33:38.482Z,80.43
2018-01-26T10:36:05.984Z,81.94
2018-01-26T10:38:33.455Z,82.75
2018-01-26T10:41:00.978Z,81.37
2018-01-26T10:43:28.471Z,81.33
2018-01-26T10:45:55.958Z,82.27
2018-01-26T10:48:23.435Z,80.44
2018-01-26T10:50:50.906Z,80.80
2018-01-26T10:53:18.395Z,80.12
2018-01-26T10:55:45.868Z,80.43
2018-01-26T10:58:13.364Z,80.69
2018-01-26T11:00:43.630Z,79.14
2018-01-26T11:03:11.114Z,79.87
2018-01-26T11:05:38.591Z,80.98
2018-01-26T11:08:06.115Z,80.05
2018-01-26T11:10:33.586Z,80.80
2018-01-26T11:13:01.067Z,80.34
2018-01-26T11:15:28.560Z,80.23
2018-01-26T11:17:56.056Z,80.02
2018-01-26T11:20:23.533Z,80.50
2018-01-26T11:22:52.039Z,80.61
2018-01-26T11:25:19.524Z,80.18
2018-01-26T11:27:47.987Z,79.03
2018-01-26T11:30:15.478Z,79.17
2018-01-26T11:32:42.958Z,79.47
2018-01-26T11:35:10.423Z,79.37
2018-01-26T11:37:37.899Z,78.24
2018-01-26T11:40:05.355Z,78.11
2018-01-26T11:42:32.831Z,78.57
2018-01-26T11:45:00.278Z,78.51
2018-01-26T11:47:27.751Z,79.87
2018-01-26T11:49:55.210Z,78.92
2018-01-26T11:52:22.690Z,78.31
2018-01-26T11:54:50.147Z,78.36
2018-01-26T11:57:17.623Z,78.11
2018-01-26T11:59:45.138Z,78.69
2018-01-26T12:02:12.618Z,78.46
2018-01-26T12:04:40.075Z,78.87
2018-01-26T12:07:07.554Z,77.85
2018-01-26T12:09:35.010Z,78.73
2018-01-26T12:12:02.466Z,78.04
2018-01-26T12:14:29.938Z,79.49
2018-01-26T12:16:57.398Z,78.34
2018-01-26T12:19:24.866Z,76.91
2018-01-26T12:21:52.319Z,76.70
2018-01-26T12:24:19.789Z,77.66
2018-01-26T12:26:47.238Z,77.80
2018-01-26T12:29:14.754Z,75.81
2018-01-26T12:31:42.211Z,74.98
2018-01-26T12:34:09.691Z,76.01
2018-01-26T12:36:37.154Z,76.78
2018-01-26T12:39:04.642Z,76.86
2018-01-26T12:41:32.090Z,76.88
2018-01-26T12:43:59.559Z,75.83
2018-01-26T12:46:27.001Z,74.58
2018-01-26T12:48:54.466Z,76.29
2018-01-26T12:51:21.914Z,74.36
2018-01-26T12:53:49.419Z,73.81
2018-01-26T12:56:16.945Z,71.90
2018-01-26T12:58:44.422Z,71.97
2018-01-26T13:01:11.911Z,72.51
2018-01-26T13:03:39.378Z,73.10
2018-01-26T13:06:06.834Z,74.57
2018-01-26T13:08:34.894Z,74.94
2018-01-26T13:11:02.359Z,76.93
2018-01-26T13:13:29.828Z,74.53
2018-01-26T13:15:57.290Z,73.50
2018-01-26T13:18:24.772Z,74.66
2018-01-26T13:20:52.236Z,73.70
2018-01-26T13:23:19.710Z,72.80
2018-01-26T13:25:47.170Z,73.18
2018-01-26T13:28:14.652Z,74.47
2018-01-26T13:30:42.104Z,74.60
2018-01-26T13:33:09.563Z,73.34
2018-01-26T13:35:37.182Z,76.33
2018-01-26T13:38:04.633Z,76.07
2018-01-26T13:40:32.123Z,76.26
2018-01-26T13:42:59.583Z,74.35
2018-01-26T13:45:27.066Z,74.22
2018-01-26T13:47:54.531Z,76.01
2018-01-26T13:50:22.007Z,75.05
2018-01-26T13:52:49.464Z,74.31
2018-01-26T13:55:16.959Z,73.65
2018-01-26T13:57:44.419Z,74.29
2018-01-26T14:00:11.902Z,74.92
2018-01-26T14:02:39.362Z,75.36
2018-01-26T14:05:06.834Z,76.20
2018-01-26T14:07:34.327Z,75.08
2018-01-26T14:10:01.817Z,75.74
2018-01-26T14:12:50.203Z,75.18
2018-01-26T14:15:17.679Z,74.74
2018-01-26T14:17:45.367Z,74.11
2018-01-26T14:20:12.879Z,74.39
2018-01-26T14:22:40.359Z,74.99
2018-01-26T14:25:08.839Z,75.54
2018-01-26T14:27:37.187Z,76.66
2018-01-26T14:30:04.751Z,76.49
2018-01-26T14:32:32.293Z,76.20
2018-01-26T14:34:59.844Z,75.53
2018-01-26T14:37:27.409Z,75.44
2018-01-26T14:39:55.006Z,75.72
2018-01-26T14:42:22.647Z,76.64
2018-01-26T14:44:50.200Z,76.93
2018-01-26T14:47:18.025Z,76.92
2018-01-26T14:49:45.623Z,77.23
2018-01-26T14:52:13.255Z,76.52
2018-01-26T14:54:40.798Z,75.99
2018-01-26T14:57:08.335Z,76.49
2018-01-26T14:59:35.863Z,77.22
2018-01-26T15:02:03.432Z,77.17
2018-01-26T15:04:30.935Z,77.14
2018-01-26T15:06:58.408Z,77.58
2018-01-26T15:09:25.875Z,77.95
2018-01-26T15:11:53.379Z,77.53
2018-01-26T15:14:20.862Z,77.87
2018-01-26T15:16:48.424Z,78.34
2018-01-26T15:19:15.891Z,78.08
2018-01-26T15:21:43.367Z,78.50
2018-01-26T15:24:10.841Z,78.71
2018-01-26T15:26:38.319Z,79.19
2018-01-26T15:29:06.110Z,79.89
2018-01-26T15:31:33.586Z,79.74
2018-01-26T15:34:01.053Z,79.42
2018-01-26T15:36:29.351Z,79.94
2018-01-26T15:39:03.323Z,80.89
2018-01-26T15:41:30.804Z,81.90
2018-01-26T15:43:58.371Z,80.66
2018-01-26T15:46:25.860Z,82.54
2018-01-26T15:48:53.330Z,82.40
2018-01-26T15:51:20.831Z,82.89
2018-01-26T15:53:48.360Z,83.78
2018-01-26T15:56:15.919Z,84.46
2018-01-26T15:58:43.462Z,84.89
2018-01-26T16:01:11.028Z,85.04
2018-01-26T16:03:38.545Z,85.20
2018-01-26T16:06:06.471Z,85.71
2018-01-26T16:08:33.992Z,85.99
2018-01-26T16:11:01.570Z,86.21
2018-01-26T16:13:29.138Z,86.55
2018-01-26T16:16:04.355Z,87.56
2018-01-26T16:18:32.024Z,88.07
2018-01-26T16:21:02.988Z,89.08
2018-01-26T16:23:30.502Z,88.91
2018-01-26T16:25:58.097Z,89.12
2018-01-26T16:28:25.698Z,89.39
2018-01-26T16:30:53.264Z,88.98
2018-01-26T16:33:20.810Z,87.37
2018-01-26T16:35:48.379Z,87.48
2018-01-26T16:38:15.937Z,86.86
2018-01-26T16:40:43.520Z,87.22
2018-01-26T16:43:11.053Z,87.67
2018-01-26T16:45:38.575Z,87.58
2018-01-26T16:48:06.142Z,88.64
2018-01-26T16:50:33.645Z,88.42
2018-01-26T16:53:01.155Z,88.64
2018-01-26T16:55:28.620Z,88.78
2018-01-26T16:57:56.103Z,89.47
2018-01-26T17:00:23.579Z,89.97
2018-01-26T17:02:51.078Z,90.19
2018-01-26T17:05:18.570Z,90.05
2018-01-26T17:07:46.069Z,89.96
2018-01-26T17:10:13.554Z,90.43
2018-01-26T17:12:41.043Z,88.85
2018-01-26T17:15:08.506Z,88.05
2018-01-26T17:17:35.986Z,87.94
2018-01-26T17:20:03.615Z,88.67
2018-01-26T17:22:31.098Z,89.45
2018-01-26T17:24:58.567Z,89.65
2018-01-26T17:27:26.059Z,89.69
2018-01-26T17:32:27.722Z,89.75
2018-01-26T17:34:55.207Z,89.54
2018-01-26T17:37:22.702Z,89.31
2018-01-26T17:39:50.194Z,89.59
2018-01-26T17:42:17.690Z,89.41
2018-01-26T17:44:45.249Z,89.72
2018-01-26T17:47:12.865Z,90.09
2018-01-26T17:49:40.413Z,90.48
2018-01-26T17:52:08.027Z,90.83
2018-01-26T17:54:35.600Z,91.12
2018-01-26T17:57:03.119Z,91.55
2018-01-26T17:59:30.595Z,91.95
2018-01-26T18:01:58.125Z,92.12
2018-01-26T18:04:25.597Z,92.45
2018-01-26T18:06:53.304Z,92.62
2018-01-26T18:09:20.858Z,92.81
2018-01-26T18:11:48.384Z,93.05
2018-01-26T18:14:15.965Z,93.27
2018-01-26T18:16:43.541Z,93.62
2018-01-26T18:19:11.114Z,93.25
2018-01-26T18:21:38.732Z,91.79
2018-01-26T18:24:06.316Z,91.67
2018-01-26T18:26:33.914Z,91.83
2018-01-26T18:29:01.485Z,92.08
2018-01-26T18:31:33.734Z,92.25
2018-01-26T18:34:01.372Z,92.47
2018-01-26T18:36:28.914Z,92.82
2018-01-26T18:38:56.551Z,92.95
2018-01-26T18:41:24.057Z,93.39
2018-01-26T18:43:51.597Z,93.71
2018-01-26T18:46:19.222Z,93.25
2018-01-26T18:48:46.816Z,92.91
2018-01-26T18:51:14.380Z,93.05
2018-01-26T18:53:41.965Z,92.91
2018-01-26T18:56:09.566Z,92.97
2018-01-26T18:58:37.140Z,93.04
2018-01-26T19:01:04.614Z,93.90
2018-01-26T19:03:32.223Z,94.11
2018-01-26T19:05:59.775Z,93.86
2018-01-26T19:08:27.342Z,93.77
2018-01-26T19:10:54.944Z,93.66
2018-01-26T19:13:22.535Z,93.68
2018-01-26T19:15:50.102Z,93.77
2018-01-26T19:18:17.699Z,93.88
2018-01-26T19:20:45.251Z,93.98
2018-01-26T19:23:12.819Z,94.22
2018-01-26T19:25:40.371Z,94.14
2018-01-26T19:28:07.986Z,94.00
2018-01-26T19:30:35.575Z,94.10
2018-01-26T19:33:03.221Z,94.15
2018-01-26T19:35:30.730Z,94.17
2018-01-26T19:37:59.227Z,95.21
2018-01-26T19:40:26.849Z,95.37
2018-01-26T19:42:54.488Z,95.74
2018-01-26T19:45:22.153Z,95.74
2018-01-26T19:47:49.824Z,95.90
2018-01-26T19:50:22.598Z,95.86
2018-01-26T19:52:50.591Z,95.93
2018-01-26T19:55:18.200Z,95.87
2018-01-26T19:57:45.759Z,95.99
2018-01-26T20:00:14.736Z,95.53
2018-01-26T20:02:42.568Z,95.47
2018-01-26T20:05:28.463Z,95.52
2018-01-26T20:08:00.888Z,95.56
2018-01-26T20:10:29.363Z,95.67
2018-01-26T20:13:02.964Z,95.87
2018-01-26T20:15:30.620Z,95.78
2018-01-26T20:17:58.110Z,95.69
2018-01-26T20:20:25.611Z,95.51
2018-01-26T20:22:53.084Z,95.29
2018-01-26T20:25:20.566Z,95.12
2018-01-26T20:27:48.027Z,95.14
2018-01-26T20:30:15.513Z,95.21
2018-01-26T20:32:42.979Z,95.29
2018-01-26T20:35:10.489Z,95.37
2018-01-26T20:37:37.951Z,95.52
2018-01-26T20:40:05.428Z,95.66
2018-01-26T20:42:32.893Z,95.67
2018-01-26T20:45:00.378Z,95.59
2018-01-26T20:47:27.844Z,95.33
2018-01-26T20:49:55.344Z,95.26
2018-01-26T20:52:22.810Z,94.82
2018-01-26T20:54:50.274Z,94.88
2018-01-26T20:57:17.752Z,94.72
2018-01-26T20:59:45.211Z,94.59
2018-01-26T21:02:12.691Z,94.42
2018-01-26T21:04:40.167Z,94.33
2018-01-26T21:07:07.651Z,94.80
2018-01-26T21:09:35.148Z,95.05
2018-01-26T21:12:02.627Z,95.01
2018-01-26T21:14:30.096Z,95.46
2018-01-26T21:16:57.579Z,95.66
2018-01-26T21:19:25.049Z,95.85
2018-01-26T21:21:52.539Z,95.64
2018-01-26T21:24:20.938Z,95.94
2018-01-26T21:26:48.732Z,96.26
2018-01-26T21:29:16.396Z,95.97
2018-01-26T21:31:44.399Z,95.70
2018-01-26T21:34:12.156Z,95.40
2018-01-26T21:36:39.659Z,94.85
2018-01-26T21:39:07.131Z,94.54
2018-01-26T21:41:34.715Z,94.91
2018-01-26T21:44:02.742Z,95.25
2018-01-26T21:46:31.292Z,95.53
2018-01-26T21:48:58.825Z,95.66
2018-01-26T21:51:26.432Z,95.40
2018-01-26T21:53:55.140Z,95.22
2018-01-26T21:56:22.772Z,95.06
2018-01-26T21:58:50.360Z,95.03
2018-01-26T22:01:18.138Z,95.10
2018-01-26T22:03:46.085Z,95.37
2018-01-26T22:06:19.223Z,95.55
2018-01-26T22:08:46.836Z,95.32
2018-01-26T22:11:14.495Z,95.14
2018-01-26T22:13:42.287Z,95.06
2018-01-26T22:16:09.925Z,95.08
2018-01-26T22:18:37.560Z,95.23
2018-01-26T22:21:05.212Z,95.38
2018-01-26T22:23:32.712Z,95.41
2018-01-26T22:26:00.171Z,95.94
2018-01-26T22:28:27.658Z,95.49
2018-01-26T22:30:55.110Z,94.92
2018-01-26T22:33:22.616Z,94.43
2018-01-26T22:35:50.524Z,93.74
2018-01-26T22:38:18.211Z,93.60
2018-01-26T22:40:46.211Z,93.83
2018-01-26T22:43:13.875Z,94.29
2018-01-26T22:45:41.509Z,94.54
2018-01-26T22:48:09.099Z,94.18
2018-01-26T22:50:36.587Z,94.15
2018-01-26T22:53:04.563Z,93.19
2018-01-26T22:55:32.201Z,92.41
2018-01-26T22:58:00.128Z,92.46
2018-01-26T23:00:27.602Z,92.79
2018-01-26T23:03:04.228Z,92.92
2018-01-26T23:08:04.764Z,92.43
2018-01-26T23:10:32.244Z,92.35
2018-01-26T23:12:59.731Z,92.24
2018-01-26T23:15:27.190Z,92.12
2018-01-26T23:17:54.672Z,92.19
2018-01-26T23:20:22.142Z,92.45
2018-01-26T23:22:49.622Z,92.23
2018-01-26T23:25:17.110Z,91.83
2018-01-26T23:27:44.630Z,91.68
2018-01-26T23:30:12.106Z,91.87
2018-01-26T23:32:39.587Z,91.51
2018-01-26T23:35:07.057Z,91.70
2018-01-26T23:37:34.530Z,92.00
2018-01-26T23:40:02.001Z,92.83
2018-01-26T23:42:29.483Z,92.53
2018-01-26T23:44:56.950Z,92.11
2018-01-26T23:47:24.443Z,91.38
2018-01-26T23:49:51.902Z,91.49
2018-01-26T23:52:19.387Z,91.37
2018-01-26T23:54:46.878Z,91.67
2018-01-26T23:57:14.339Z,91.85
2018-01-26T23:59:41.843Z,92.30
